Time;durP1;ratioP1;P1;durP2;ratioP2;P2;SDS_P1;SDS_P2;PMS_P1;PMS_P2;Temp;Humidity;BMP_temperature;BMP_pressure;BME280_temperature;BME280_humidity;BME280_pressure;Samples;Min_cycle;Max_cycle;Signal;HPM_P1;HPM_P2
2023/06/27 00:00:25;;;;;;;6.07;1.97;;;;;;;13.90;94.88;101133.06;6051698;28;20047;-65
2023/06/27 00:03:24;;;;;;;7.70;1.92;;;;;;;14.01;94.57;101146.13;6049784;28;20618;-66
2023/06/27 00:06:20;;;;;;;5.18;1.65;;;;;;;13.92;94.38;101133.72;6021379;28;20068;-65
2023/06/27 00:09:15;;;;;;;11.15;2.45;;;;;;;13.92;94.43;101141.72;6050787;28;20029;-65
2023/06/27 00:12:11;;;;;;;6.63;1.77;;;;;;;13.85;95.26;101135.34;6050519;28;20091;-66
2023/06/27 00:15:06;;;;;;;8.17;2.03;;;;;;;13.89;94.83;101144.69;6050151;28;20380;-66
2023/06/27 00:18:07;;;;;;;15.45;2.22;;;;;;;13.91;94.77;101150.75;6041572;28;20440;-66
2023/06/27 00:21:02;;;;;;;7.50;2.30;;;;;;;13.88;94.35;101151.03;6050647;28;20044;-66
2023/06/27 00:23:58;;;;;;;5.00;2.13;;;;;;;13.83;94.80;101158.69;6039980;28;20029;-66
2023/06/27 00:26:54;;;;;;;6.78;2.05;;;;;;;13.78;95.18;101155.63;6050061;28;20026;-66
2023/06/27 00:29:49;;;;;;;11.67;2.47;;;;;;;13.80;96.07;101174.97;6050364;28;20042;-66
2023/06/27 00:32:44;;;;;;;5.03;2.07;;;;;;;13.77;96.12;101175.28;6039531;28;20420;-65
2023/06/27 00:35:40;;;;;;;4.90;1.80;;;;;;;13.67;96.95;101158.53;6049728;28;20038;-66
2023/06/27 00:38:35;;;;;;;8.07;2.83;;;;;;;13.65;97.25;101165.84;6041248;28;20026;-66
2023/06/27 00:41:30;;;;;;;6.65;2.08;;;;;;;13.61;97.85;101173.34;6048223;28;20273;-66
2023/06/27 00:44:26;;;;;;;9.17;2.27;;;;;;;13.54;98.20;101179.41;6049496;28;20380;-65
2023/06/27 00:47:21;;;;;;;4.40;1.80;;;;;;;13.47;99.12;101165.03;6049686;28;20033;-66
2023/06/27 00:50:16;;;;;;;8.37;2.00;;;;;;;13.44;99.15;101168.00;6040565;28;20050;-66
2023/06/27 00:53:12;;;;;;;6.70;2.15;;;;;;;13.39;100.00;101172.97;6040880;28;20356;-66
2023/06/27 00:56:07;;;;;;;9.10;2.22;;;;;;;13.33;100.00;101168.25;6019591;28;20034;-66
2023/06/27 00:59:03;;;;;;;7.57;2.73;;;;;;;13.23;100.00;101159.50;6048675;28;20045;-66
2023/06/27 01:01:58;;;;;;;4.22;2.10;;;;;;;13.18;100.00;101159.94;6049563;28;20030;-66
2023/06/27 01:04:54;;;;;;;9.50;2.43;;;;;;;13.29;100.00;101161.56;6043840;28;20042;-66
2023/06/27 01:08:01;;;;;;;13.30;3.23;;;;;;;13.17;100.00;101165.44;6033308;28;20740;-66
2023/06/27 01:11:20;;;;;;;6.88;2.20;;;;;;;13.24;100.00;101177.97;6023670;28;20740;-66
2023/06/27 01:14:16;;;;;;;;;;;;;;;13.16;100.00;101179.72;6033185;28;20030;-66
2023/06/27 01:17:12;;;;;;;7.82;2.03;;;;;;;13.05;100.00;101162.94;6023444;28;19948;-66
2023/06/27 01:20:08;;;;;;;5.57;2.75;;;;;;;13.16;100.00;101180.56;6032994;28;20034;-66
2023/06/27 01:23:31;;;;;;;6.93;2.10;;;;;;;13.10;100.00;101173.16;6046127;28;20025;-66
2023/06/27 01:26:27;;;;;;;5.20;2.20;;;;;;;13.08;100.00;101178.66;6042758;28;20025;-66
2023/06/27 01:29:22;;;;;;;8.65;1.77;;;;;;;12.90;100.00;101164.47;6049235;28;20038;-67
2023/06/27 01:32:26;;;;;;;8.47;2.30;;;;;;;12.85;100.00;101160.56;6049463;28;20029;-66
2023/06/27 01:35:32;;;;;;;6.15;2.03;;;;;;;12.89;100.00;101172.59;6028101;28;20289;-67
2023/06/27 01:38:35;;;;;;;13.60;2.65;;;;;;;12.77;100.00;101158.66;6064715;28;20105;-65
2023/06/27 01:41:32;;;;;;;5.57;2.00;;;;;;;12.74;100.00;101164.28;6059753;28;20081;-65
2023/06/27 01:44:28;;;;;;;9.07;2.45;;;;;;;12.76;100.00;101162.31;6032718;28;20029;-65
2023/06/27 01:47:24;;;;;;;8.25;2.53;;;;;;;12.80;100.00;101165.50;6046749;28;20030;-66
2023/06/27 01:50:20;;;;;;;4.07;1.98;;;;;;;12.76;100.00;101169.44;6041245;28;20447;-65
2023/06/27 01:53:15;;;;;;;7.97;1.90;;;;;;;12.70;100.00;101157.56;6039228;28;20036;-65
2023/06/27 01:56:12;;;;;;;9.03;2.13;;;;;;;12.71;100.00;101161.06;6036676;28;20061;-65
2023/06/27 01:59:07;;;;;;;5.70;3.13;;;;;;;12.62;100.00;101146.84;6053435;28;20025;-66
2023/06/27 02:02:03;;;;;;;8.33;2.00;;;;;;;12.66;100.00;101155.38;6053555;28;20480;-66
2023/06/27 02:04:58;;;;;;;5.72;1.75;;;;;;;12.50;100.00;101142.72;6029949;28;20018;-65
2023/06/27 02:07:54;;;;;;;7.78;2.30;;;;;;;12.42;100.00;101147.91;6038190;28;20034;-65
2023/06/27 02:10:49;;;;;;;6.47;2.00;;;;;;;12.37;100.00;101145.69;6053164;28;20041;-65
2023/06/27 02:13:45;;;;;;;3.70;1.90;;;;;;;12.30;100.00;101141.13;6052771;28;20085;-65
2023/06/27 02:16:40;;;;;;;5.10;1.92;;;;;;;12.34;100.00;101161.09;6040108;28;20034;-65
2023/06/27 02:19:35;;;;;;;7.57;2.27;;;;;;;12.23;100.00;101148.81;6039135;28;20373;-65
2023/06/27 02:22:30;;;;;;;9.43;2.40;;;;;;;12.17;100.00;101143.28;6053278;28;20091;-65
2023/06/27 02:25:26;;;;;;;9.20;2.40;;;;;;;12.29;100.00;101158.88;6033415;28;20030;-65
2023/06/27 02:28:21;;;;;;;6.13;2.00;;;;;;;12.12;100.00;101145.53;6052295;28;20080;-65
2023/06/27 02:31:18;;;;;;;8.07;2.27;;;;;;;12.13;100.00;101147.19;6052860;28;20469;-65
2023/06/27 02:34:13;;;;;;;4.65;2.17;;;;;;;12.13;100.00;101145.38;6025257;28;20037;-66
2023/06/27 02:37:09;;;;;;;14.10;2.40;;;;;;;12.12;100.00;101143.69;6040099;28;20046;-65
2023/06/27 02:40:04;;;;;;;6.43;2.27;;;;;;;12.14;100.00;101159.50;6052574;28;20111;-65
2023/06/27 02:43:00;;;;;;;9.75;2.42;;;;;;;12.09;100.00;101151.13;6038266;28;20312;-65
2023/06/27 02:45:55;;;;;;;5.50;2.00;;;;;;;12.05;100.00;101160.38;6049315;28;20025;-65
2023/06/27 02:48:50;;;;;;;9.75;2.47;;;;;;;12.02;100.00;101150.88;6042015;28;20026;-65
2023/06/27 02:51:46;;;;;;;6.07;2.10;;;;;;;12.01;100.00;101143.06;6034183;28;20041;-65
2023/06/27 02:54:41;;;;;;;4.30;2.03;;;;;;;11.98;100.00;101148.66;6049862;28;20458;-65
2023/06/27 02:57:36;;;;;;;7.83;2.53;;;;;;;12.03;100.00;101167.66;6035592;28;20359;-65
2023/06/27 03:00:32;;;;;;;5.47;2.10;;;;;;;12.08;100.00;101168.06;6046524;28;20089;-65
2023/06/27 03:03:27;;;;;;;7.53;2.60;;;;;;;12.07;100.00;101171.69;6046860;28;20061;-65
2023/06/27 03:06:22;;;;;;;10.93;2.83;;;;;;;11.88;100.00;101146.84;6051940;28;20339;-65
2023/06/27 03:09:18;;;;;;;8.53;2.20;;;;;;;11.97;100.00;101169.06;6040501;28;20034;-65
2023/06/27 03:12:13;;;;;;;8.40;2.53;;;;;;;12.01;100.00;101164.31;6051945;28;20377;-65
2023/06/27 03:15:09;;;;;;;5.53;2.20;;;;;;;11.88;100.00;101160.13;6045042;28;20381;-65
2023/06/27 03:18:04;;;;;;;6.25;1.80;;;;;;;11.94;100.00;101159.56;6047212;28;20033;-65
2023/06/27 03:20:59;;;;;;;6.70;1.70;;;;;;;11.84;100.00;101158.75;6048579;28;20041;-65
2023/06/27 03:23:55;;;;;;;4.50;1.97;;;;;;;11.84;100.00;101148.13;6049615;28;20478;-65
2023/06/27 03:26:50;;;;;;;8.67;2.30;;;;;;;11.77;100.00;101140.84;6051697;28;20413;-65
2023/06/27 03:29:45;;;;;;;4.40;1.87;;;;;;;11.75;100.00;101145.47;6042669;28;20042;-65
2023/06/27 03:32:41;;;;;;;7.25;1.90;;;;;;;11.71;100.00;101144.91;6039914;28;20091;-65
2023/06/27 03:35:36;;;;;;;4.87;1.97;;;;;;;11.72;100.00;101132.47;6050815;28;20065;-65
2023/06/27 03:38:31;;;;;;;6.57;2.03;;;;;;;11.76;100.00;101142.69;6051164;28;20265;-65
2023/06/27 03:41:27;;;;;;;5.87;1.97;;;;;;;11.77;100.00;101144.34;6047164;28;20030;-65
2023/06/27 03:44:22;;;;;;;6.63;1.67;;;;;;;11.81;100.00;101148.41;6044674;28;20546;-65
2023/06/27 03:47:17;;;;;;;3.23;1.60;;;;;;;11.84;100.00;101169.38;6051199;28;20541;-65
2023/06/27 03:50:13;;;;;;;6.40;1.70;;;;;;;11.88;100.00;101165.44;6042318;28;20465;-65
2023/06/27 03:53:08;;;;;;;4.33;1.60;;;;;;;11.83;100.00;101159.72;6041331;28;20076;-65
2023/06/27 03:56:04;;;;;;;5.07;1.53;;;;;;;12.02;100.00;101158.00;6049164;28;20069;-66
2023/06/27 03:58:59;;;;;;;13.07;2.03;;;;;;;12.03;100.00;101167.66;6040028;28;20276;-65
2023/06/27 04:01:54;;;;;;;5.80;1.70;;;;;;;12.00;100.00;101159.97;6051075;28;20032;-65
2023/06/27 04:04:49;;;;;;;4.97;1.73;;;;;;;12.09;100.00;101164.44;6050086;28;20025;-65
2023/06/27 04:07:45;;;;;;;4.97;1.50;;;;;;;12.12;100.00;101167.63;6050611;28;20458;-65
2023/06/27 04:10:42;;;;;;;4.80;1.70;;;;;;;12.17;100.00;101165.38;6035802;28;20049;-65
2023/06/27 04:13:37;;;;;;;5.85;1.90;;;;;;;12.21;100.00;101166.75;6039533;28;20100;-65
2023/06/27 04:16:32;;;;;;;4.73;1.80;;;;;;;12.32;100.00;101168.41;6043424;28;20104;-65
2023/06/27 04:19:28;;;;;;;6.13;1.80;;;;;;;12.28;100.00;101151.91;6038460;28;20771;-65
2023/06/27 04:22:23;;;;;;;9.43;2.23;;;;;;;12.42;99.35;101164.72;6039938;28;20072;-66
2023/06/27 04:25:18;;;;;;;2.90;1.50;;;;;;;12.78;99.27;101159.47;6049885;28;20029;-65
2023/06/27 04:28:14;;;;;;;3.88;1.55;;;;;;;13.14;97.14;101155.91;6032922;28;20030;-65
2023/06/27 04:31:09;;;;;;;7.93;1.53;;;;;;;13.61;92.80;101167.16;6045682;28;20045;-65
2023/06/27 04:34:08;;;;;;;4.40;1.77;;;;;;;13.68;91.45;101154.88;6034902;28;20022;-65
2023/06/27 04:37:04;;;;;;;8.10;1.45;;;;;;;14.24;89.46;101178.44;6050024;28;20057;-65
2023/06/27 04:39:59;;;;;;;4.63;1.25;;;;;;;14.39;87.39;101176.03;6050361;28;20079;-65
2023/06/27 04:42:54;;;;;;;4.03;1.40;;;;;;;14.55;87.17;101160.94;6036322;28;20076;-65
2023/06/27 04:45:50;;;;;;;3.10;1.20;;;;;;;15.14;85.47;101173.28;6049577;28;20117;-66
2023/06/27 04:48:46;;;;;;;3.70;1.27;;;;;;;15.40;82.42;101179.34;6049988;28;20026;-65
2023/06/27 04:51:41;;;;;;;4.50;1.20;;;;;;;15.51;81.62;101172.03;6031353;28;20034;-65
2023/06/27 04:54:37;;;;;;;3.90;1.50;;;;;;;15.17;82.44;101167.63;6035146;28;20049;-65
2023/06/27 04:57:32;;;;;;;5.03;1.07;;;;;;;15.47;82.61;101164.34;6046444;28;20101;-65
2023/06/27 05:00:27;;;;;;;3.63;1.53;;;;;;;15.64;81.32;101172.38;6049922;28;20037;-65
2023/06/27 05:03:22;;;;;;;5.13;1.20;;;;;;;15.87;80.70;101173.38;6049152;28;20058;-66
2023/06/27 05:06:18;;;;;;;3.20;1.40;;;;;;;15.78;79.29;101166.34;6047838;28;20030;-66
2023/06/27 05:09:13;;;;;;;3.92;1.42;;;;;;;15.88;80.82;101162.50;6033227;28;20604;-65
2023/06/27 05:12:08;;;;;;;5.93;1.60;;;;;;;15.78;80.60;101155.66;6043684;28;20036;-65
2023/06/27 05:15:04;;;;;;;5.03;1.30;;;;;;;15.74;79.94;101155.16;6035715;28;20034;-65
2023/06/27 05:18:05;;;;;;;6.40;1.63;;;;;;;16.19;79.21;101165.28;6030866;28;20481;-66
2023/06/27 05:21:01;;;;;;;4.40;1.40;;;;;;;16.53;78.85;101156.97;6022792;28;20030;-65
2023/06/27 05:23:56;;;;;;;6.97;1.47;;;;;;;16.51;77.31;101165.16;6032825;28;20088;-65
2023/06/27 05:26:51;;;;;;;6.03;1.60;;;;;;;16.41;78.29;101167.22;6030710;28;20282;-66
2023/06/27 05:29:47;;;;;;;2.63;1.27;;;;;;;16.41;77.14;101156.53;6049884;28;20036;-65
2023/06/27 05:32:42;;;;;;;3.50;1.30;;;;;;;16.58;77.12;101158.13;6045597;28;20064;-65
2023/06/27 05:35:37;;;;;;;4.27;1.37;;;;;;;16.56;77.63;101170.88;6033104;28;20320;-65
2023/06/27 05:38:33;;;;;;;3.27;1.40;;;;;;;16.83;77.27;101163.38;6044349;28;20030;-65
2023/06/27 05:41:30;;;;;;;5.40;1.50;;;;;;;16.73;76.70;101155.56;6051393;28;20044;-66
2023/06/27 05:44:25;;;;;;;6.20;2.38;;;;;;;16.86;75.44;101169.22;6039219;28;20062;-66
2023/06/27 05:47:20;;;;;;;4.43;1.63;;;;;;;17.03;75.00;101169.97;6028095;28;20040;-65
2023/06/27 05:50:16;;;;;;;8.23;2.72;;;;;;;17.13;74.84;101170.56;6039628;28;20462;-65
2023/06/27 05:53:11;;;;;;;3.50;1.37;;;;;;;17.32;74.26;101167.44;6042019;28;20034;-66
2023/06/27 05:56:07;;;;;;;6.37;1.87;;;;;;;17.18;74.62;101157.47;6044348;28;20303;-65
2023/06/27 05:59:02;;;;;;;4.55;2.00;;;;;;;17.22;74.70;101161.47;6038507;28;20030;-66
2023/06/27 06:01:57;;;;;;;5.70;1.40;;;;;;;17.92;71.92;101154.03;6030651;28;20476;-65
2023/06/27 06:04:54;;;;;;;4.45;1.58;;;;;;;17.91;70.74;101155.03;6037298;28;20053;-65
2023/06/27 06:07:49;;;;;;;4.95;1.25;;;;;;;18.18;70.83;101161.66;6040896;28;20034;-66
2023/06/27 06:10:45;;;;;;;5.50;1.80;;;;;;;18.15;71.29;101164.72;6034003;28;20378;-66
2023/06/27 06:13:40;;;;;;;2.90;1.35;;;;;;;17.97;70.22;101153.47;6038417;28;20042;-65
2023/06/27 06:16:36;;;;;;;7.38;1.75;;;;;;;18.02;70.07;101135.00;6039644;28;20033;-65
2023/06/27 06:19:31;;;;;;;3.43;1.50;;;;;;;18.11;70.62;101155.34;6028758;28;20045;-66
2023/06/27 06:22:26;;;;;;;2.77;1.40;;;;;;;18.62;68.90;101156.28;6032805;28;20105;-65
2023/06/27 06:25:22;;;;;;;2.83;1.33;;;;;;;18.49;67.80;101173.06;6029553;28;20536;-66
2023/06/27 06:28:17;;;;;;;3.27;1.20;;;;;;;18.54;69.53;101162.59;6032003;28;20466;-65
2023/06/27 06:31:16;;;;;;;3.93;1.37;;;;;;;18.51;68.69;101154.09;6030300;28;20084;-65
2023/06/27 06:34:11;;;;;;;6.03;1.33;;;;;;;18.52;68.07;101171.88;6031817;28;20162;-65
2023/06/27 06:37:07;;;;;;;5.68;1.30;;;;;;;18.43;68.76;101160.34;6030046;28;20135;-65
2023/06/27 06:40:03;;;;;;;5.07;1.50;;;;;;;18.62;68.33;101154.44;6030026;28;20042;-65
2023/06/27 06:42:58;;;;;;;3.53;1.50;;;;;;;18.82;67.95;101158.22;6025364;28;20027;-65
2023/06/27 06:45:54;;;;;;;5.50;1.40;;;;;;;18.69;68.51;101155.38;6030838;28;20465;-66
2023/06/27 06:48:49;;;;;;;9.27;1.45;;;;;;;18.32;68.08;101163.50;6018570;28;20037;-66
2023/06/27 06:51:44;;;;;;;3.00;1.40;;;;;;;18.07;67.94;101159.44;6028459;28;20038;-65
2023/06/27 06:54:43;;;;;;;5.20;1.23;;;;;;;17.88;68.47;101168.84;6027695;28;20030;-65
2023/06/27 06:57:38;;;;;;;6.68;1.60;;;;;;;17.84;68.57;101159.47;6028224;28;20349;-65
2023/06/27 07:00:33;;;;;;;5.60;1.50;;;;;;;18.14;67.02;101152.31;6028474;28;20037;-65
2023/06/27 07:03:30;;;;;;;3.03;1.20;;;;;;;18.47;65.04;101161.66;6026388;28;20029;-66
2023/06/27 07:06:25;;;;;;;6.60;1.40;;;;;;;18.62;64.93;101153.59;6027830;28;20277;-65
2023/06/27 07:09:21;;;;;;;5.30;1.43;;;;;;;18.21;65.75;101156.75;6027372;28;20038;-65
2023/06/27 07:12:16;;;;;;;3.10;1.50;;;;;;;18.14;65.62;101154.97;6028258;28;20040;-66
2023/06/27 07:15:11;;;;;;;6.43;1.50;;;;;;;18.04;65.58;101155.28;6017478;28;20414;-66
2023/06/27 07:18:07;;;;;;;3.83;1.23;;;;;;;18.60;64.43;101135.00;6026749;28;20072;-66
2023/06/27 07:21:02;;;;;;;4.97;1.47;;;;;;;18.68;63.85;101124.13;6024129;28;20044;-66
2023/06/27 07:23:57;;;;;;;3.27;1.33;;;;;;;18.50;64.16;101150.59;6038135;28;20392;-65
2023/06/27 07:26:52;;;;;;;7.53;1.47;;;;;;;18.58;64.50;101131.69;6034990;28;20058;-66
2023/06/27 07:29:48;;;;;;;4.33;1.30;;;;;;;18.83;63.65;101145.63;6039292;28;20152;-65
2023/06/27 07:32:43;;;;;;;4.60;1.30;;;;;;;19.07;63.42;101120.22;6027995;28;20034;-65
2023/06/27 07:35:38;;;;;;;3.75;1.30;;;;;;;18.89;63.93;101134.94;6019115;28;20037;-66
2023/06/27 07:38:34;;;;;;;4.63;1.47;;;;;;;18.68;62.50;101131.38;6020607;28;20034;-65
2023/06/27 07:41:29;;;;;;;3.87;1.30;;;;;;;18.43;61.77;101128.97;6039523;28;20269;-65
2023/06/27 07:44:25;;;;;;;5.47;1.47;;;;;;;18.73;62.51;101113.66;6047792;28;20022;-65
2023/06/27 07:47:20;;;;;;;3.20;1.45;;;;;;;19.28;62.03;101112.16;6033482;28;20048;-65
2023/06/27 07:50:15;;;;;;;2.80;1.23;;;;;;;19.27;60.50;101115.91;6030739;28;20472;-65
2023/06/27 07:53:11;;;;;;;2.77;1.13;;;;;;;19.47;61.54;101125.84;6032743;28;20233;-66
2023/06/27 07:56:06;;;;;;;2.93;1.20;;;;;;;19.49;60.10;101122.94;6037424;28;20620;-66
2023/06/27 07:59:04;;;;;;;2.72;0.82;;;;;;;19.12;59.21;101123.19;6031024;28;20288;-65
2023/06/27 08:01:59;;;;;;;5.78;1.25;;;;;;;18.82;59.86;101123.28;6050065;28;20044;-65
2023/06/27 08:04:55;;;;;;;3.73;1.27;;;;;;;19.39;59.99;101112.53;6048314;28;20377;-65
2023/06/27 08:07:50;;;;;;;4.40;1.10;;;;;;;19.84;57.28;101119.28;6046426;28;20301;-66
2023/06/27 08:10:45;;;;;;;3.90;1.30;;;;;;;19.60;59.01;101123.25;6049849;28;20099;-66
2023/06/27 08:13:41;;;;;;;4.47;1.20;;;;;;;18.89;60.92;101116.09;6032648;28;20030;-66
2023/06/27 08:16:36;;;;;;;4.30;1.40;;;;;;;18.64;62.44;101125.56;6025034;28;20034;-65
2023/06/27 08:19:32;;;;;;;9.90;1.30;;;;;;;18.89;61.65;101116.09;6029572;28;20029;-66
2023/06/27 08:22:27;;;;;;;5.77;1.10;;;;;;;19.66;58.98;101108.19;6040600;28;20045;-65
2023/06/27 08:25:22;;;;;;;6.03;1.33;;;;;;;20.28;57.26;101110.88;6047880;28;20034;-67
2023/06/27 08:28:17;;;;;;;5.60;1.10;;;;;;;19.98;56.03;101104.88;6032709;28;20478;-66
2023/06/27 08:31:13;;;;;;;6.00;1.20;;;;;;;19.26;57.78;101114.22;6040107;28;20288;-66
2023/06/27 08:34:08;;;;;;;3.97;1.10;;;;;;;19.10;61.74;101117.16;6039464;28;20040;-66
2023/06/27 08:37:04;;;;;;;2.67;1.10;;;;;;;20.07;60.51;101125.25;6040214;28;20026;-65
2023/06/27 08:39:59;;;;;;;6.38;1.67;;;;;;;20.68;56.47;101101.13;6048227;28;20370;-66
2023/06/27 08:42:55;;;;;;;4.23;1.23;;;;;;;20.52;53.06;101098.78;6034687;28;20046;-65
2023/06/27 08:45:54;;;;;;;2.03;0.70;;;;;;;20.23;53.09;101091.78;6060579;28;20045;-65
2023/06/27 08:48:52;;;;;;;2.22;1.23;;;;;;;20.61;52.92;101097.56;6047157;28;20424;-65
2023/06/27 08:51:54;;;;;;;2.58;1.10;;;;;;;20.29;51.58;101096.41;6023923;28;20355;-65
2023/06/27 08:54:55;;;;;;;1.70;0.85;;;;;;;19.89;55.05;101100.72;6060895;28;20066;-66
2023/06/27 08:57:50;;;;;;;5.93;1.10;;;;;;;19.79;54.85;101100.19;6044484;28;20033;-66
2023/06/27 09:00:46;;;;;;;3.42;1.00;;;;;;;20.20;55.72;101082.22;6025303;28;20034;-66
2023/06/27 09:03:41;;;;;;;8.93;1.73;;;;;;;21.03;52.81;101088.34;6030759;28;20533;-66
2023/06/27 09:06:39;;;;;;;4.13;1.35;;;;;;;20.85;52.38;101088.94;6042699;28;20028;-66
2023/06/27 09:09:35;;;;;;;1.90;0.90;;;;;;;20.98;50.21;101093.53;6039944;28;20026;-66
2023/06/27 09:12:31;;;;;;;2.30;1.10;;;;;;;20.97;51.43;101084.63;6057916;28;20040;-66
2023/06/27 09:15:26;;;;;;;2.78;0.77;;;;;;;20.62;50.88;101067.72;6037066;28;20038;-66
2023/06/27 09:18:21;;;;;;;3.63;1.60;;;;;;;20.33;53.08;101091.44;6042793;28;20069;-66
2023/06/27 09:21:18;;;;;;;4.77;1.10;;;;;;;21.07;52.47;101079.66;6034178;28;20121;-65
2023/06/27 09:24:16;;;;;;;4.00;0.90;;;;;;;20.62;51.41;101075.81;6038952;28;20311;-66
2023/06/27 09:27:29;;;;;;;3.28;1.10;;;;;;;20.14;53.66;101091.09;6033050;28;20113;-65
2023/06/27 09:30:25;;;;;;;3.33;0.90;;;;;;;20.42;53.22;101091.06;6030385;28;20069;-66
2023/06/27 09:33:20;;;;;;;3.77;0.80;;;;;;;20.71;52.02;101092.59;6029330;28;20030;-66
2023/06/27 09:36:32;;;;;;;2.37;0.77;;;;;;;21.19;52.07;101091.53;6038869;28;20037;-66
2023/06/27 09:39:28;;;;;;;4.03;1.20;;;;;;;21.43;50.14;101084.69;6038263;28;20281;-66
2023/06/27 09:42:24;;;;;;;6.15;1.40;;;;;;;21.26;48.88;101086.13;6035516;28;20465;-66
2023/06/27 09:45:20;;;;;;;3.70;1.00;;;;;;;20.69;50.64;101081.22;6034334;28;20454;-66
2023/06/27 09:48:17;;;;;;;3.92;1.00;;;;;;;20.86;52.16;101093.28;6034821;28;20105;-67
2023/06/27 09:51:12;;;;;;;4.90;1.17;;;;;;;20.69;50.48;101075.81;6025848;28;20040;-66
2023/06/27 09:54:10;;;;;;;3.37;1.07;;;;;;;20.99;51.64;101104.09;6031101;28;20026;-66
2023/06/27 09:57:16;;;;;;;5.75;1.00;;;;;;;21.13;50.38;101092.34;6032345;28;20089;-66
2023/06/27 10:00:11;;;;;;;5.35;1.10;;;;;;;21.57;49.39;101096.31;6023959;28;20029;-67
2023/06/27 10:03:08;;;;;;;3.35;1.10;;;;;;;21.34;50.19;101070.56;6034274;28;20120;-66
2023/06/27 10:06:03;;;;;;;4.55;1.20;;;;;;;21.04;50.21;101095.38;6037391;28;20030;-66
2023/06/27 10:08:59;;;;;;;3.78;1.17;;;;;;;21.57;51.29;101080.94;6036184;28;20038;-66
2023/06/27 10:11:55;;;;;;;2.10;0.90;;;;;;;21.64;49.18;101080.91;6038930;28;20030;-66
2023/06/27 10:14:50;;;;;;;2.13;1.10;;;;;;;20.79;48.61;101089.72;6039122;28;20029;-66
2023/06/27 10:17:46;;;;;;;3.30;1.00;;;;;;;20.16;51.88;101096.31;6029001;28;20033;-66
2023/06/27 10:20:42;;;;;;;5.13;1.07;;;;;;;20.15;53.06;101087.38;6024109;28;20422;-65
2023/06/27 10:23:40;;;;;;;2.05;0.90;;;;;;;20.73;50.94;101067.16;6038852;28;20305;-66
2023/06/27 10:26:36;;;;;;;3.60;0.90;;;;;;;21.15;49.40;101063.28;6043082;28;20370;-65
2023/06/27 10:29:31;;;;;;;3.95;1.00;;;;;;;21.60;48.50;101069.72;6035594;28;20454;-66
2023/06/27 10:32:39;;;;;;;2.58;1.17;;;;;;;21.97;48.38;101060.13;6026459;28;20045;-66
2023/06/27 10:35:38;;;;;;;7.15;1.00;;;;;;;21.76;46.94;101052.25;6027344;28;20030;-66
2023/06/27 10:38:38;;;;;;;2.70;0.90;;;;;;;21.38;47.62;101048.56;6048023;28;20121;-66
2023/06/27 10:41:37;;;;;;;2.13;0.98;;;;;;;21.65;46.82;101055.59;6026051;28;20034;-66
2023/06/27 10:45:09;;;;;;;2.10;0.80;;;;;;;21.87;46.13;101038.16;6032502;28;20034;-65
2023/06/27 10:48:04;;;;;;;7.28;0.98;;;;;;;22.26;45.76;101042.56;6024829;28;20045;-65
2023/06/27 10:51:05;;;;;;;4.43;0.90;;;;;;;21.61;45.81;101048.94;6026952;28;20014;-66
2023/06/27 10:54:11;;;;;;;4.78;0.90;;;;;;;21.91;46.34;101052.88;6027205;28;20026;-66
2023/06/27 10:57:06;;;;;;;4.75;0.88;;;;;;;22.13;45.74;101046.16;6035334;28;20033;-67
2023/06/27 11:00:34;;;;;;;4.30;1.10;;;;;;;22.49;45.59;101051.84;6017269;28;20022;-67
2023/06/27 11:03:33;;;;;;;3.95;1.20;;;;;;;22.50;44.83;101031.03;6027794;28;20049;-66
2023/06/27 11:06:39;;;;;;;3.40;1.00;;;;;;;22.53;44.32;101044.94;6030748;28;20454;-66
2023/06/27 11:09:36;;;;;;;5.38;0.90;;;;;;;22.32;43.07;101030.91;6035672;28;20105;-66
2023/06/27 11:12:35;;;;;;;1.88;0.80;;;;;;;21.84;43.45;101038.53;6038969;28;20033;-65
2023/06/27 11:15:34;;;;;;;4.25;0.85;;;;;;;21.96;43.25;101031.44;6031485;28;20462;-66
2023/06/27 11:18:29;;;;;;;2.90;0.80;;;;;;;22.26;42.64;101026.34;6043122;28;20471;-66
2023/06/27 11:21:25;;;;;;;1.97;0.87;;;;;;;22.57;43.66;101017.47;6043176;28;20025;-66
2023/06/27 11:24:20;;;;;;;2.53;0.80;;;;;;;22.12;44.58;101022.91;6031445;28;20030;-67
2023/06/27 11:27:16;;;;;;;3.47;0.87;;;;;;;21.95;45.70;101019.00;6030834;28;20117;-66
2023/06/27 11:30:11;;;;;;;4.57;0.90;;;;;;;22.64;45.88;100996.69;6028144;28;20320;-66
2023/06/27 11:33:07;;;;;;;1.40;0.70;;;;;;;23.25;42.27;100997.66;6047651;28;20053;-66
2023/06/27 11:36:03;;;;;;;3.08;0.75;;;;;;;23.34;41.55;101017.16;6027424;28;20266;-67
2023/06/27 11:38:58;;;;;;;4.78;0.88;;;;;;;22.50;42.64;101020.22;6027024;28;20057;-66
2023/06/27 11:41:54;;;;;;;2.43;0.80;;;;;;;22.15;43.14;101003.53;6028654;28;20034;-66
2023/06/27 11:44:50;;;;;;;3.63;0.90;;;;;;;21.75;45.85;101015.50;6022446;28;20410;-65
2023/06/27 11:47:46;;;;;;;4.68;0.70;;;;;;;21.41;45.03;101026.56;6033548;28;20027;-66
2023/06/27 11:51:03;;;;;;;6.45;0.85;;;;;;;21.00;46.25;101032.13;6027597;28;20462;-66
2023/06/27 11:54:00;;;;;;;2.72;1.05;;;;;;;20.91;47.39;101027.97;6022949;28;20431;-65
2023/06/27 11:57:02;;;;;;;3.78;0.90;;;;;;;20.61;48.32;101040.97;6024064;28;20074;-66
2023/06/27 11:59:57;;;;;;;4.03;0.80;;;;;;;20.49;50.62;101040.72;6025848;28;20056;-66
2023/06/27 12:02:57;;;;;;;1.67;0.80;;;;;;;20.39;49.30;101039.44;6030211;28;20026;-66
2023/06/27 12:05:55;;;;;;;1.95;0.75;;;;;;;20.30;50.73;101027.19;6021865;28;20045;-66
2023/06/27 12:08:50;;;;;;;2.05;0.85;;;;;;;20.24;50.15;101025.28;6023412;28;20030;-65
2023/06/27 12:11:54;;;;;;;5.57;1.00;;;;;;;20.39;50.56;101028.66;6041514;28;20026;-67
2023/06/27 12:14:50;;;;;;;3.13;0.93;;;;;;;20.62;51.87;101015.69;6025713;28;20358;-66
2023/06/27 12:17:59;;;;;;;3.43;0.90;;;;;;;20.85;52.93;101026.91;6018899;28;20033;-66
2023/06/27 12:20:55;;;;;;;2.83;0.90;;;;;;;21.11;54.02;101031.53;6032936;28;20105;-66
2023/06/27 12:23:51;;;;;;;2.03;0.93;;;;;;;21.45;54.92;101043.97;6029790;28;20409;-65
2023/06/27 12:26:47;;;;;;;1.27;0.70;;;;;;;21.18;53.26;101021.56;6022150;28;20035;-67
2023/06/27 12:29:42;;;;;;;2.38;0.82;;;;;;;21.16;53.42;101035.28;6026723;28;20043;-66
2023/06/27 12:32:38;;;;;;;3.87;0.90;;;;;;;21.78;54.40;101015.06;6035904;28;20037;-66
2023/06/27 12:35:34;;;;;;;4.60;0.93;;;;;;;22.17;48.88;101011.44;6018043;28;20125;-65
2023/06/27 12:38:30;;;;;;;3.90;1.10;;;;;;;22.28;48.76;101008.06;6023992;28;20492;-66
2023/06/27 12:41:26;;;;;;;4.37;0.87;;;;;;;22.95;50.00;101016.44;6038050;28;20042;-66
2023/06/27 12:44:21;;;;;;;3.72;0.85;;;;;;;23.13;49.16;101004.03;6022790;28;20089;-66
2023/06/27 12:47:16;;;;;;;2.67;1.20;;;;;;;23.61;49.39;100994.22;6023469;28;20603;-66
2023/06/27 12:50:16;;;;;;;1.67;0.60;;;;;;;24.10;45.30;100993.28;6029328;28;20041;-66
2023/06/27 12:53:12;;;;;;;4.35;1.10;;;;;;;24.03;44.00;100987.06;6022966;28;20062;-66
2023/06/27 12:56:07;;;;;;;1.90;1.00;;;;;;;23.20;45.36;100988.53;6026497;28;20057;-66
2023/06/27 12:59:02;;;;;;;1.97;0.70;;;;;;;23.60;46.31;100976.31;6054931;28;20497;-66
2023/06/27 13:02:00;;;;;;;3.67;0.87;;;;;;;23.95;45.10;100965.69;6024233;28;20045;-66
2023/06/27 13:04:55;;;;;;;3.58;1.00;;;;;;;23.30;44.74;100970.75;6023409;28;20030;-66
2023/06/27 13:07:51;;;;;;;4.90;1.00;;;;;;;23.13;45.55;100964.22;6028388;28;20041;-67
2023/06/27 13:10:46;;;;;;;6.30;0.88;;;;;;;23.79;45.12;100974.41;6026099;28;20771;-66
2023/06/27 13:13:42;;;;;;;3.13;0.85;;;;;;;23.84;43.02;100966.44;6027382;28;20144;-67
2023/06/27 13:16:37;;;;;;;4.22;1.20;;;;;;;24.14;43.44;100972.78;6031885;28;20037;-66
2023/06/27 13:19:32;;;;;;;2.03;0.87;;;;;;;24.34;42.99;100967.91;6031147;28;20040;-66
2023/06/27 13:22:28;;;;;;;2.67;1.10;;;;;;;24.57;43.04;100959.84;6032217;28;20280;-66
2023/06/27 13:25:25;;;;;;;7.38;0.90;;;;;;;24.71;42.15;100945.03;6033438;28;20034;-67
2023/06/27 13:28:20;;;;;;;2.78;0.82;;;;;;;24.01;41.59;100953.94;6017369;28;20034;-66
2023/06/27 13:31:15;;;;;;;3.47;1.00;;;;;;;23.58;42.25;100962.16;6028619;28;20480;-65
2023/06/27 13:34:11;;;;;;;2.90;0.80;;;;;;;23.37;42.50;100960.69;6026301;28;20065;-66
2023/06/27 13:37:06;;;;;;;3.00;1.10;;;;;;;23.68;41.65;100949.75;6029544;28;20323;-66
2023/06/27 13:40:04;;;;;;;3.38;1.00;;;;;;;23.49;41.74;100947.25;6031352;28;20285;-65